Weather reports worldwide

Advertisment
Hoorn-A, Netherlands (6212): temperature & dewpoint: 17.10.2020 01:00:00 - 23.10.2020 01:00:00 (CEST)Hoorn-A, Netherlands (6212): wind speed & gusts: 17.10.2020 01:00:00 - 23.10.2020 01:00:00 (CEST)Hoorn-A, Netherlands (6212): wind direction: 17.10.2020 01:00:00 - 23.10.2020 01:00:00 (CEST)Hoorn-A, Netherlands (6212): reduced air pressure: 17.10.2020 01:00:00 - 23.10.2020 01:00:00 (CEST)
Date & Time tt [°C] td [°C] ff [km/h] ff [kn] fx [km/h] fx [kn] dd ppp [hPa]
23.10.2020 01:00:00 13,0 8,0 29 16 - - SW 1010,1
23.10.2020 00:00:00 13,6 9,1 39 21 40 21 WSW 1009,8
22.10.2020 23:00:00 13,9 8,5 37 20 40 21 SW 1009,7
22.10.2020 22:00:00 14,4 9,6 41 22 40 21 SW 1009,3
22.10.2020 21:00:00 14,8 10,3 42 23 43 23 SSW 1008,9
22.10.2020 20:00:00 14,9 11,2 42 23 47 25 SW 1008,7
22.10.2020 19:00:00 14,9 12,9 44 24 43 23 S 1008,2
22.10.2020 18:00:00 14,9 12,9 44 24 47 25 S 1007,9
22.10.2020 17:00:00 15,1 11,4 40 21 54 29 S 1007,6
22.10.2020 16:00:00 15,0 11,1 50 27 50 27 S 1007,3
22.10.2020 15:00:00 15,0 11,3 52 28 58 31 S 1007,3
22.10.2020 14:00:00 15,0 10,9 55 30 58 31 S 1007,3
22.10.2020 13:00:00 14,8 10,9 57 31 58 31 S 1007,4
22.10.2020 12:00:00 14,8 11,4 54 29 58 31 S 1007,4
22.10.2020 11:00:00 14,7 10,8 57 31 58 31 SSW 1007,2
22.10.2020 10:00:00 14,8 10,9 59 32 61 33 SSW 1006,7
22.10.2020 09:00:00 15,0 11,1 50 27 65 35 SSW 1006,0
22.10.2020 08:00:00 15,1 11,6 61 33 65 35 S 1005,1
22.10.2020 07:00:00 15,2 11,4 54 29 65 35 S 1004,8
22.10.2020 06:00:00 14,9 11,3 54 29 61 33 S 1004,5
22.10.2020 05:00:00 15,1 10,7 59 32 58 31 S 1004,2
22.10.2020 04:00:00 15,2 13,6 50 27 50 27 S 1004,1
22.10.2020 03:00:00 15,1 13,8 48 26 50 27 S 1004,1
22.10.2020 02:00:00 15,2 13,5 46 25 43 23 S 1003,8
22.10.2020 01:00:00 15,2 13,5 46 25 47 25 S 1003,4
22.10.2020 00:00:00 15,0 13,2 46 25 50 27 SSW 1002,8
21.10.2020 23:00:00 14,7 12,7 48 26 47 25 SSW 1001,7
21.10.2020 22:00:00 14,3 12,3 46 25 54 29 SW 999,5
21.10.2020 21:00:00 15,2 13,7 55 30 65 35 SSW 997,8
21.10.2020 20:00:00 14,7 14,1 72 39 76 41 S 995,9
21.10.2020 19:00:00 15,3 14,3 78 42 79 43 S 994,3
21.10.2020 18:00:00 15,7 14,4 80 43 83 45 S 993,0
21.10.2020 17:00:00 16,3 14,2 78 42 94 51 S 992,4
21.10.2020 16:00:00 17,1 13,6 55 30 79 43 SSE 992,0
21.10.2020 15:00:00 15,5 12,9 59 32 61 33 SE 992,9
21.10.2020 14:00:00 14,2 12,5 52 28 58 31 SE 993,9
21.10.2020 13:00:00 13,7 13,2 54 29 54 29 SE 995,7
21.10.2020 12:00:00 13,5 12,8 48 26 50 27 SE 996,8
21.10.2020 11:00:00 13,5 12,9 36 19 43 23 SE 998,2
21.10.2020 10:00:00 13,6 13,0 39 21 36 19 SE 999,3
21.10.2020 09:00:00 13,8 13,2 35 19 32 18 SE 999,8
21.10.2020 08:00:00 13,9 13,3 35 19 36 19 SE 1000,4
21.10.2020 07:00:00 14,2 13,3 37 20 36 19 SE 1001,2
21.10.2020 06:00:00 14,4 13,5 37 20 40 21 SE 1001,2
21.10.2020 05:00:00 14,8 13,4 41 22 40 21 SSE 1001,6
21.10.2020 04:00:00 14,7 13,5 41 22 40 21 SSE 1002,3
21.10.2020 03:00:00 14,8 13,4 44 24 43 23 SSE 1002,9
21.10.2020 02:00:00 14,8 13,4 44 24 47 25 S 1003,5
21.10.2020 01:00:00 14,7 13,4 46 25 47 25 SSE 1003,6
21.10.2020 00:00:00 14,8 13,3 42 23 47 25 S 1003,7
20.10.2020 23:00:00 14,8 13,2 46 25 47 25 SSE 1004,4
20.10.2020 22:00:00 14,9 13,0 46 25 47 25 SSE 1004,0
20.10.2020 21:00:00 14,9 12,7 48 26 50 27 SSE 1004,0
20.10.2020 20:00:00 14,8 12,7 50 27 50 27 SSE 1004,0
20.10.2020 19:00:00 14,7 12,7 48 26 50 27 S 1004,0
20.10.2020 18:00:00 14,6 12,5 50 27 50 27 SSE 1004,1
20.10.2020 17:00:00 14,5 12,5 40 21 50 27 S 1004,2
20.10.2020 16:00:00 14,4 12,0 50 27 58 31 SSE 1004,0
20.10.2020 15:00:00 14,0 11,4 47 25 58 31 S 1004,2
20.10.2020 14:00:00 13,8 11,0 43 23 54 29 SSE 1004,5
20.10.2020 13:00:00 13,5 10,8 46 25 50 27 SSE 1004,3
20.10.2020 12:00:00 13,1 10,6 42 23 47 25 SSE 1004,3
20.10.2020 11:00:00 13,1 10,6 46 25 47 25 S 1005,1
20.10.2020 10:00:00 12,7 9,4 55 30 54 29 SSE 1005,1
20.10.2020 09:00:00 11,8 8,6 46 25 47 25 SSE 1004,7
20.10.2020 08:00:00 11,4 8,0 50 27 47 25 SE 1005,0
20.10.2020 07:00:00 11,3 7,1 46 25 47 25 SE 1005,5
20.10.2020 06:00:00 11,5 6,7 44 24 47 25 SE 1006,6
20.10.2020 05:00:00 11,9 6,5 46 25 47 25 SE 1006,8
20.10.2020 04:00:00 12,3 7,3 44 24 47 25 SE 1008,4
20.10.2020 03:00:00 12,4 6,7 50 27 50 27 SE 1009,8
20.10.2020 02:00:00 12,6 7,7 48 26 47 25 SE 1010,4
20.10.2020 01:00:00 12,7 7,8 46 25 47 25 SE 1011,4
20.10.2020 00:00:00 12,8 8,0 44 24 43 23 SE 1012,4
19.10.2020 23:00:00 12,7 7,6 44 24 47 25 SE 1013,4
19.10.2020 22:00:00 12,8 7,7 46 25 43 23 SE 1014,2
19.10.2020 21:00:00 12,8 7,7 46 25 43 23 SE 1015,0
19.10.2020 20:00:00 12,9 6,4 41 22 40 21 SE 1015,6
19.10.2020 19:00:00 12,9 8,2 37 20 36 19 SE 1016,0
19.10.2020 18:00:00 12,7 7,5 37 20 36 19 SSE 1016,2
19.10.2020 17:00:00 12,8 6,2 37 20 36 19 SSE 1017,0
19.10.2020 16:00:00 12,9 8,3 29 16 32 18 SSE 1017,6
19.10.2020 15:00:00 13,0 7,3 26 14 29 16 SSE 1018,3
19.10.2020 14:00:00 12,7 7,0 18 10 25 14 SSE 1018,8
19.10.2020 13:00:00 12,3 7,8 26 14 29 16 SSE 1019,2
19.10.2020 12:00:00 12,2 7,5 28 15 32 18 SSE 1019,6
19.10.2020 11:00:00 12,3 6,8 25 14 29 16 SSE 1019,7
19.10.2020 10:00:00 12,3 5,7 24 13 25 14 S 1020,0
19.10.2020 09:00:00 12,2 5,1 22 12 22 12 S 1019,9
19.10.2020 08:00:00 12,0 4,9 11 6 18 10 S 1019,9
19.10.2020 07:00:00 11,7 5,3 9 5 18 10 WSW 1020,0
19.10.2020 06:00:00 11,5 5,7 9 5 18 10 SW 1020,2
19.10.2020 05:00:00 10,5 6,6 15 8 25 14 S 1020,6
19.10.2020 04:00:00 10,6 7,5 16 9 25 14 S 1021,2
19.10.2020 03:00:00 11,2 6,3 16 9 22 12 WSW 1021,3
19.10.2020 02:00:00 11,3 6,1 18 10 22 12 W 1021,3
19.10.2020 01:00:00 11,1 6,1 14 8 18 10 W 1021,3
19.10.2020 00:00:00 11,0 5,7 21 11 22 12 W 1021,5
18.10.2020 23:00:00 10,6 7,2 11 6 29 16 W 1021,7
18.10.2020 22:00:00 10,4 7,3 11 6 29 16 WNW 1021,6
18.10.2020 21:00:00 9,2 8,2 28 15 32 18 WNW 1022,1
18.10.2020 20:00:00 10,9 7,2 11 6 29 16 W 1021,6
18.10.2020 19:00:00 10,0 8,8 13 7 25 14 W 1021,5
18.10.2020 18:00:00 10,3 7,8 22 12 25 14 WNW 1021,2
18.10.2020 17:00:00 11,3 7,2 16 9 25 14 W 1021,2
18.10.2020 16:00:00 10,0 8,8 18 10 32 18 WNW 1021,3
18.10.2020 15:00:00 11,0 7,3 22 12 29 16 WNW 1021,5
18.10.2020 14:00:00 11,4 7,7 18 10 29 16 WNW 1021,7
18.10.2020 13:00:00 11,7 6,9 25 14 29 16 WNW 1022,1
18.10.2020 12:00:00 10,5 8,5 22 12 29 16 W 1021,9
18.10.2020 11:00:00 10,1 8,8 26 14 36 19 W 1021,8
18.10.2020 10:00:00 10,9 8,8 39 21 40 21 WNW 1021,5
18.10.2020 09:00:00 11,7 8,0 29 16 36 19 WNW 1021,1
18.10.2020 08:00:00 12,1 8,4 39 21 40 21 W 1020,7
18.10.2020 07:00:00 12,4 6,3 29 16 32 18 WNW 1020,6
18.10.2020 06:00:00 12,5 6,8 18 10 25 14 WNW 1020,6
18.10.2020 05:00:00 12,6 6,3 22 12 25 14 NW 1020,7
18.10.2020 04:00:00 12,8 6,4 26 14 29 16 NW 1020,9
18.10.2020 03:00:00 12,9 7,5 22 12 25 14 NW 1021,0
18.10.2020 02:00:00 13,1 8,1 16 9 18 10 WNW 1021,1
18.10.2020 01:00:00 12,7 8,2 8 4 11 6 W 1021,2
18.10.2020 00:00:00 12,6 8,0 8 4 11 6 NW 1021,1
17.10.2020 23:00:00 12,6 7,2 9 5 11 6 NNW 1021,1
17.10.2020 22:00:00 12,6 7,1 8 4 11 6 NNW 1021,1
17.10.2020 21:00:00 12,6 6,9 5 3 7 4 N 1021,2
17.10.2020 20:00:00 12,6 7,0 8 4 7 4 NNE 1021,0
17.10.2020 19:00:00 12,4 8,0 4 2 7 4 - 1020,6
17.10.2020 18:00:00 12,4 8,1 4 2 7 4 - 1020,3
17.10.2020 17:00:00 12,3 8,3 9 5 11 6 ENE 1020,5
17.10.2020 16:00:00 12,2 7,7 9 5 14 8 NE 1020,6
17.10.2020 15:00:00 12,5 7,8 8 4 11 6 N 1020,5
17.10.2020 14:00:00 12,4 7,9 8 4 11 6 N 1020,6
17.10.2020 13:00:00 12,2 8,8 8 4 11 6 WNW 1020,9
17.10.2020 12:00:00 11,5 9,3 11 6 18 10 W 1020,8
17.10.2020 11:00:00 11,3 8,3 15 8 18 10 WSW 1020,7
17.10.2020 10:00:00 10,9 9,2 4 2 14 8 W 1020,9
17.10.2020 09:00:00 11,0 7,9 21 11 25 14 NNW 1020,7
17.10.2020 08:00:00 11,7 8,0 22 12 25 14 NW 1020,2
17.10.2020 07:00:00 12,0 7,0 16 9 18 10 NW 1020,7
17.10.2020 06:00:00 12,5 7,6 15 8 18 10 WNW 1020,8
17.10.2020 05:00:00 12,7 6,1 11 6 14 8 WNW 1020,9
17.10.2020 04:00:00 12,6 6,5 15 8 18 10 NW 1021,2
17.10.2020 03:00:00 12,6 7,2 13 7 18 10 NW 1021,7
17.10.2020 02:00:00 12,6 7,4 15 8 18 10 NW 1022,0
17.10.2020 01:00:00 12,7 7,5 15 8 18 10 NW 1022,4

tt = temperature
td = dewpoint
ff = wind speed
fx = gusts
dd = wind direction
ppp = reduced air pressure

Next stations